地図

経路データ

SID SEASON NUMBER BASIN SUBBASIN NAME ISO_TIME NATURE LAT LON WMO_WIND WMO_PRES WMO_AGENCY TRACK_TYPE DIST2LAND LANDFALL IFLAG USA_AGENCY USA_ATCF_ID USA_LAT USA_LON USA_RECORD USA_STATUS USA_WIND USA_PRES USA_SSHS USA_R34_NE USA_R34_SE USA_R34_SW USA_R34_NW USA_R50_NE USA_R50_SE USA_R50_SW USA_R50_NW USA_R64_NE USA_R64_SE USA_R64_SW USA_R64_NW USA_POCI USA_ROCI USA_RMW USA_EYE TOKYO_LAT TOKYO_LON TOKYO_GRADE TOKYO_WIND TOKYO_PRES TOKYO_R50_DIR TOKYO_R50_LONG TOKYO_R50_SHORT TOKYO_R30_DIR TOKYO_R30_LONG TOKYO_R30_SHORT TOKYO_LAND CMA_LAT CMA_LON CMA_CAT CMA_WIND CMA_PRES HKO_LAT HKO_LON HKO_CAT HKO_WIND HKO_PRES NEWDELHI_LAT NEWDELHI_LON NEWDELHI_GRADE NEWDELHI_WIND NEWDELHI_PRES NEWDELHI_CI NEWDELHI_DP NEWDELHI_POCI REUNION_LAT REUNION_LON REUNION_TYPE REUNION_WIND REUNION_PRES REUNION_TNUM REUNION_CI REUNION_RMW REUNION_R34_NE REUNION_R34_SE REUNION_R34_SW REUNION_R34_NW REUNION_R50_NE REUNION_R50_SE REUNION_R50_SW REUNION_R50_NW REUNION_R64_NE REUNION_R64_SE REUNION_R64_SW REUNION_R64_NW BOM_LAT BOM_LON BOM_TYPE BOM_WIND BOM_PRES BOM_TNUM BOM_CI BOM_RMW BOM_R34_NE BOM_R34_SE BOM_R34_SW BOM_R34_NW BOM_R50_NE BOM_R50_SE BOM_R50_SW BOM_R50_NW BOM_R64_NE BOM_R64_SE BOM_R64_SW BOM_R64_NW BOM_ROCI BOM_POCI BOM_EYE BOM_POS_METHOD BOM_PRES_METHOD NADI_LAT NADI_LON NADI_CAT NADI_WIND NADI_PRES WELLINGTON_LAT WELLINGTON_LON WELLINGTON_WIND WELLINGTON_PRES DS824_LAT DS824_LON DS824_STAGE DS824_WIND DS824_PRES TD9636_LAT TD9636_LON TD9636_STAGE TD9636_WIND TD9636_PRES TD9635_LAT TD9635_LON TD9635_WIND TD9635_PRES TD9635_ROCI NEUMANN_LAT NEUMANN_LON NEUMANN_CLASS NEUMANN_WIND NEUMANN_PRES MLC_LAT MLC_LON MLC_CLASS MLC_WIND MLC_PRES USA_GUST BOM_GUST BOM_GUST_PER REUNION_GUST REUNION_GUST_PER USA_SEAHGT USA_SEARAD_NE USA_SEARAD_SE USA_SEARAD_SW USA_SEARAD_NW STORM_SPEED STORM_DIR
1980332S16214 1981 103 SP MM DIOLA 1980-11-27 00:00:00 TS -16.2000 -146.300 30 997 wellington main 2794 2794 ________O___O_ -1 -16.2000 -146.300 30 997 -16.2000 -146.300 TC 25 11 100
1980332S16214 1981 103 SP MM DIOLA 1980-11-27 03:00:00 TS -16.2911 -145.744 main 2858 2858 ________P___P_ -1 -16.3920 -145.736 30 997 -16.1903 -145.752 TC 25 11 103
1980332S16214 1981 103 SP MM DIOLA 1980-11-27 06:00:00 TS -16.4383 -145.188 main 2912 2912 ________P___O_ -1 -16.5767 -145.176 30 997 -16.3000 -145.200 TC 25 11 110
1980332S16214 1981 103 SP MM DIOLA 1980-11-27 09:00:00 TS -16.6702 -144.636 main 2977 2977 ________P___P_ -1 -16.7479 -144.629 30 997 -16.5924 -144.643 TC 27 11 114
1980332S16214 1981 103 SP MM DIOLA 1980-11-27 12:00:00 TS -16.9000 -144.100 30 997 wellington main 3031 3031 ________O___O_ -1 -16.9000 -144.100 30 997 -16.9000 -144.100 TC 30 11 110
1980332S16214 1981 103 SP MM DIOLA 1980-11-27 15:00:00 TS -17.0263 -143.596 main 3085 3085 ________P___P_ -1 -17.0303 -143.591 30 997 -17.0223 -143.600 TC 30 10 103
1980332S16214 1981 103 SP MM DIOLA 1980-11-27 18:00:00 TS -17.1243 -143.093 main 3138 3138 ________P___O_ -1 -17.1486 -143.086 30 997 -17.1000 -143.100 TC 30 10 103
1980332S16214 1981 103 SP MM DIOLA 1980-11-27 21:00:00 TS -17.2550 -142.568 main 3193 3193 ________P___P_ -1 -17.2676 -142.563 30 997 -17.2423 -142.572 TC 30 11 105
1980332S16214 1981 103 SP MM DIOLA 1980-11-28 00:00:00 TS -17.4000 -142.000 30 997 wellington main 3257 3257 ________O___O_ -1 -17.4000 -142.000 30 997 -17.4000 -142.000 TC 30 12 103
1980332S16214 1981 103 SP MM DIOLA 1980-11-28 03:00:00 TS -17.5280 -141.318 main 3331 3331 ________P___P_ -1 -17.5137 -141.263 31 996 -17.5424 -141.372 TC 30 14 102
1980332S16214 1981 103 SP MM DIOLA 1980-11-28 06:00:00 TS -17.6738 -140.600 main 3407 3407 ________P___O_ -1 -17.6476 -140.501 32 996 -17.7000 -140.700 TC 30 14 103
1980332S16214 1981 103 SP MM DIOLA 1980-11-28 09:00:00 TS -17.8440 -139.858 main 3481 3481 ________P___P_ -1 -17.8324 -139.813 33 995 -17.8556 -139.903 TC 30 13 109
1980332S16214 1981 103 SP MM DIOLA 1980-11-28 12:00:00 TS -18.1000 -139.300 35 995 wellington main 3546 3546 ________O___O_ -1 -18.1000 -139.300 35 995 -18.1000 -139.300 TC 30 10 134
1980332S16214 1981 103 SP MM DIOLA 1980-11-28 15:00:00 TS -18.5243 -139.126 main 3570 3570 ________P___P_ -1 -18.5440 -139.051 36 993 -18.5046 -139.202 TC 30 9 171
1980332S16214 1981 103 SP MM DIOLA 1980-11-28 18:00:00 TS -19.0316 -139.143 main 3573 3573 ________P___O_ -1 -19.0632 -138.986 37 992 -19.0000 -139.300 TC 30 10 181
1980332S16214 1981 103 SP MM DIOLA 1980-11-28 21:00:00 TS -19.5642 -139.137 main 3579 3571 ________P___P_ -1 -19.5758 -139.054 38 991 -19.5525 -139.220 TC 32 10 183
1980332S16214 1981 103 SP MM DIOLA 1980-11-29 00:00:00 TS -20.0000 -139.200 40 990 wellington main 3573 3564 ________O___O_ -1 -20.0000 -139.200 40 990 -20.0000 -139.200 TC 35 7 197
1980332S16214 1981 103 SP MM DIOLA 1980-11-29 03:00:00 TS -20.1850 -139.345 main 3565 3544 ________P___P_ -1 -20.2175 -139.327 40 990 -20.1525 -139.363 TC 35 4 231
1980332S16214 1981 103 SP MM DIOLA 1980-11-29 06:00:00 TS -20.2700 -139.559 main 3535 3516 ________P___O_ -1 -20.3400 -139.518 40 990 -20.2000 -139.600 TC 35 4 244
1980332S16214 1981 103 SP MM DIOLA 1980-11-29 09:00:00 TS -20.3800 -139.771 main 3516 3496 ________P___P_ -1 -20.4175 -139.749 40 990 -20.3424 -139.793 TC 35 5 241
1980332S16214 1981 103 SP MM DIOLA 1980-11-29 12:00:00 TS -20.5000 -140.000 40 990 wellington main 3496 3477 ________O___O_ -1 -20.5000 -140.000 40 990 -20.5000 -140.000 TC 35 5 240
1980332S16214 1981 103 SP MM DIOLA 1980-11-29 15:00:00 TS -20.6083 -140.200 main 3477 3458 ________P___P_ -1 -20.5741 -140.158 38 991 -20.6425 -140.243 TC 32 5 239
1980332S16214 1981 103 SP MM DIOLA 1980-11-29 18:00:00 TS -20.7377 -140.420 main 3458 3439 ________P___O_ -1 -20.6754 -140.340 37 992 -20.8000 -140.500 TC 30 5 236
1980332S16214 1981 103 SP MM DIOLA 1980-11-29 21:00:00 TS -20.8906 -140.654 main 3430 3404 ________P___P_ -1 -20.8641 -140.603 36 993 -20.9172 -140.706 TC 30 7 230
1980332S16214 1981 103 SP MM DIOLA 1980-11-30 00:00:00 TS -21.2000 -141.000 35 995 wellington main 3404 3362 ________O___O_ -1 -21.2000 -141.000 35 995 -21.2000 -141.000 TC 30 12 222
1980332S16214 1981 103 SP MM DIOLA 1980-11-30 03:00:00 TS -21.7741 -141.509 main 3364 3308 ________P___P_ -1 -21.7237 -141.572 33 995 -21.8245 -141.445 TC 30 17 220
1980332S16214 1981 103 SP MM DIOLA 1980-11-30 06:00:00 TS -22.5003 -142.196 main 3308 3246 ________P___O_ -1 -22.4006 -142.292 32 996 -22.6000 -142.100 TC 30 21 224
1980332S16214 1981 103 SP MM DIOLA 1980-11-30 09:00:00 TS -23.2519 -143.050 main 3248 3177 ________P___P_ -1 -23.1771 -143.117 31 996 -23.3267 -142.983 TC 27 22 228
1980332S16214 1981 103 SP MM DIOLA 1980-11-30 12:00:00 TS -24.0000 -144.000 30 997 wellington main 3170 ________O___O_ -1 -24.0000 -144.000 30 997 -24.0000 -144.000 TC 25 23 229

デジタル台風データ・検索

IBTrACS Databaseについて

本データベースは、米国NOAAが公開する1842年以降の世界の熱帯低気圧のベストトラックデータアーカイブInternational Best Track Archive for Climate Stewardship (IBTrACS)を、ウェブで閲覧しやすい形式に変換したものです。

最終更新日:2021-12-06